Flight Track Log - Related Links

Times and Time Zones

All times are in EDT time to prevent confusion due to time zone crossing. See the EGF3683 flight status page for this flight to view local times or setup timezone preferences in your user account.

Time Position Orientation Groundspeed Altitude Reporting Facility
EDT Latitude Longitude Course Direction KTS MPH feet Rate Location/Type
Wed 10:47:12 PM 41.9333 -87.9167 201° Southwest 183 211 3,100  Level Chicago TRACON
Wed 10:48:00 PM 41.7670 -87.9998 206° Southwest  Level FlightAware Approximate
Wed 10:48:12 PM 41.8667 -87.9333 191° South 254 292 5,800  Level Chicago TRACON
Wed 10:49:00 PM 41.6623 -88.0488 203° Southwest  Level FlightAware Approximate
Wed 10:49:12 PM 41.7833 -87.9667 197° South 286 329 8,200  Level Chicago TRACON
Wed 10:50:00 PM 41.5574 -88.1004 197° South  Level FlightAware Approximate
Wed 10:50:08 PM 41.7247 -87.9997 203° Southwest 289 333 10,200  Level Chicago Center
Wed 10:51:00 PM 41.4501 -88.1433 197° South  Level FlightAware Approximate
Wed 10:51:10 PM 41.6461 -88.0444 203° Southwest 307 353 12,800  Level Chicago Center
Wed 10:52:00 PM 41.3507 -88.1830 201° Southwest  Level FlightAware Approximate
Wed 10:52:11 PM 41.5664 -88.0892 203° Southwest 312 359 14,700  Level Chicago Center
Wed 10:53:12 PM 41.4597 -88.1500 203° Southwest 365 420 16,200 1,328 Climbing Chicago Center
Wed 10:54:13 PM 41.3617 -88.2008 201° Southwest 391 450 17,400 1,131 Climbing Chicago Center
Wed 10:55:14 PM 41.2556 -88.2475 198° South 407 468 18,500 1,171 Climbing Chicago Center
Wed 10:56:16 PM 41.1458 -88.2975 199° South 418 481 19,800 1,268 Climbing Chicago Center
Wed 10:57:17 PM 41.0336 -88.3489 199° South 429 494 21,100 1,426 Climbing Chicago Center
Wed 10:58:18 PM 40.8972 -88.4083 198° South 432 497 22,700 1,426 Climbing Chicago Center
Wed 10:59:19 PM 40.8014 -88.5008 216° Southwest 432 497 24,000 1,268 Climbing Chicago Center
Wed 11:00:21 PM 40.7161 -88.6153 226° Southwest 438 504 25,300 1,268 Climbing Chicago Center
Wed 11:01:22 PM 40.6303 -88.7275 225° Southwest 438 504 26,600 1,279 Climbing Chicago Center
Wed 11:02:23 PM 40.5442 -88.8408 225° Southwest 439 505 27,900 1,328 Climbing Chicago Center
Wed 11:03:24 PM 40.4492 -88.9664 225° Southwest 438 504 29,300 1,366 Climbing Chicago Center
Wed 11:04:26 PM 40.3625 -89.0803 225° Southwest 438 504 30,700 1,317 Climbing Chicago Center
Wed 11:05:27 PM 40.2753 -89.1922 224° Southwest 437 503 32,000 1,279 Climbing Chicago Center
Wed 11:06:28 PM 40.1894 -89.3036 225° Southwest 434 499 33,300 984 Climbing Chicago Center
Wed 11:07:29 PM 40.1036 -89.4147 225° Southwest 433 498 34,000 344 Climbing Chicago Center
Wed 11:08:30 PM 40.0133 -89.5311 225° Southwest 453 521 34,000  Level Chicago Center
Wed 11:09:23 PM 39.9394 -89.6253 224° Southwest 459 528 34,000  Level Kansas City Center
Wed 11:10:25 PM 39.8442 -89.7481 225° Southwest 474 545 34,000  Level Kansas City Center
Wed 11:11:25 PM 39.7483 -89.8703 224° Southwest 480 552 34,000  Level Kansas City Center
Wed 11:12:26 PM 39.6514 -89.9961 225° Southwest 474 545 34,000  Level Kansas City Center
Wed 11:13:29 PM 39.5578 -90.1153 224° Southwest 474 545 34,000  Level Kansas City Center
Wed 11:14:30 PM 39.4642 -90.2339 224° Southwest 473 544 34,000  Level Kansas City Center
Wed 11:15:31 PM 39.3522 -90.3753 224° Southwest 473 544 34,000  Level Kansas City Center
Wed 11:16:34 PM 39.2594 -90.4933 225° Southwest 472 543 34,000  Level Kansas City Center
Wed 11:17:34 PM 39.1661 -90.6092 224° Southwest 470 541 34,000  Level Kansas City Center
Wed 11:18:36 PM 39.0758 -90.7228 224° Southwest 464 534 34,000  Level Kansas City Center
Wed 11:19:37 PM 38.9828 -90.8372 224° Southwest 466 536 34,000  Level Kansas City Center
Wed 11:20:38 PM 38.8892 -90.9522 224° Southwest 469 540 34,000  Level Kansas City Center
Wed 11:21:38 PM 38.7956 -91.0669 224° Southwest 469 540 34,000  Level Kansas City Center
Wed 11:22:40 PM 38.7033 -91.1814 224° Southwest 467 537 34,000  Level Kansas City Center
Wed 11:23:40 PM 38.5900 -91.3192 224° Southwest 469 540 34,000  Level Kansas City Center
Wed 11:24:41 PM 38.5017 -91.4247 223° Southwest 471 542 34,000  Level Kansas City Center
Wed 11:25:45 PM 38.4064 -91.5400 223° Southwest 472 543 34,000  Level Kansas City Center
Wed 11:26:46 PM 38.3092 -91.6556 223° Southwest 476 548 34,000  Level Kansas City Center
Wed 11:27:46 PM 38.2117 -91.7706 223° Southwest 476 548 34,000  Level Kansas City Center
Wed 11:28:47 PM 38.1150 -91.8861 223° Southwest 472 543 34,000  Level Kansas City Center
Wed 11:29:47 PM 37.9989 -92.0239 223° Southwest 471 542 34,000  Level Kansas City Center
Wed 11:30:50 PM 37.9189 -92.1172 223° Southwest 472 543 34,000  Level Kansas City Center
Wed 11:31:50 PM 37.8214 -92.2353 224° Southwest 483 556 34,000 -1,100 Level Kansas City Center
Wed 11:32:50 PM 37.7075 -92.3683 223° Southwest 470 541 31,800 -2,129 Descending Kansas City Center
Wed 11:33:54 PM 37.6044 -92.4900 223° Southwest 481 554 29,600 -2,064 Descending Kansas City Center
Wed 11:34:55 PM 37.5064 -92.6056 223° Southwest 481 554 27,500 -2,083 Descending Kansas City Center
Wed 11:35:55 PM 37.4150 -92.7139 223° Southwest 459 528 25,400 -2,083 Descending Kansas City Center
Wed 11:36:56 PM 37.3256 -92.8136 222° Southwest 441 507 23,300 -2,066 Descending Kansas City Center
Wed 11:37:57 PM 37.2361 -92.9167 223° Southwest 435 501 21,200 -2,049 Descending Kansas City Center
Wed 11:38:59 PM 37.1467 -93.0208 223° Southwest 436 502 19,100 -1,951 Descending Kansas City Center
Wed 11:40:00 PM 37.0583 -93.1225 223° Southwest 434 499 17,200 -1,967 Descending Kansas City Center
Wed 11:41:01 PM 36.9767 -93.2175 223° Southwest 417 480 15,100 -1,328 Descending Kansas City Center
Wed 11:42:02 PM 36.8997 -93.3039 222° Southwest 392 451 14,500 -1,082 Descending Kansas City Center
Wed 11:43:03 PM 36.8292 -93.3894 224° Southwest 371 427 12,900 -1,525 Descending Kansas City Center
Wed 11:44:04 PM 36.7558 -93.4850 226° Southwest 377 434 11,400 -1,415 Descending Kansas City Center
Wed 11:45:06 PM 36.6797 -93.5794 225° Southwest 384 442 10,000 -689 Descending Kansas City Center
Wed 11:46:06 PM 36.6042 -93.6989 232° Southwest 368 423 10,000 -390 Level Kansas City Center
Wed 11:47:09 PM 36.5742 -93.7858 247° West 297 342 9,200 -1,024 Descending Kansas City Center
Wed 11:48:09 PM 36.5444 -93.8700 246° West 270 311 7,900 -1,339 Descending Kansas City Center
Wed 11:49:10 PM 36.5139 -93.9569 246° West 270 311 6,500 -1,230 Descending Kansas City Center
Wed 11:50:11 PM 36.4825 -94.0431 246° West 272 313 5,400 -1,131 Descending Kansas City Center
Wed 11:51:12 PM 36.4525 -94.1264 246° West 269 310 4,200 -1,122 Descending Kansas City Center
Wed 11:52:14 PM 36.4242 -94.2064 246° West 262 302 3,100 -1,065 Descending Kansas City Center

Login

Don't have an account? Register now (free) for customized features, flight alerts, and more!